sensor_id;sensor_type;location;lat;lon;timestamp;pressure;altitude;pressure_sealevel;temperature;humidity
6833;BME280;3454;42.654;23.378;2023-02-28T00:00:09;94920.50;;;7.17;100.00
6833;BME280;3454;42.654;23.378;2023-02-28T00:02:43;94910.16;;;7.20;100.00
6833;BME280;3454;42.654;23.378;2023-02-28T00:05:10;94923.94;;;7.16;100.00
6833;BME280;3454;42.654;23.378;2023-02-28T00:07:37;94904.03;;;6.99;100.00
6833;BME280;3454;42.654;23.378;2023-02-28T00:10:06;94919.41;;;7.08;100.00
6833;BME280;3454;42.654;23.378;2023-02-28T00:12:33;94904.03;;;6.99;100.00
6833;BME280;3454;42.654;23.378;2023-02-28T00:14:59;94913.94;;;7.02;100.00
6833;BME280;3454;42.654;23.378;2023-02-28T00:17:24;94926.56;;;7.02;100.00
6833;BME280;3454;42.654;23.378;2023-02-28T00:19:51;94933.03;;;7.06;100.00
6833;BME280;3454;42.654;23.378;2023-02-28T00:22:21;94926.16;;;6.95;100.00
6833;BME280;3454;42.654;23.378;2023-02-28T00:24:47;94925.38;;;6.95;100.00
6833;BME280;3454;42.654;23.378;2023-02-28T00:27:13;94941.53;;;7.05;100.00
6833;BME280;3454;42.654;23.378;2023-02-28T00:29:39;94922.81;;;7.07;100.00
6833;BME280;3454;42.654;23.378;2023-02-28T00:32:05;94931.69;;;7.25;100.00
6833;BME280;3454;42.654;23.378;2023-02-28T00:34:31;94912.09;;;7.16;100.00
6833;BME280;3454;42.654;23.378;2023-02-28T00:36:57;94923.75;;;6.94;100.00
6833;BME280;3454;42.654;23.378;2023-02-28T00:39:23;94940.31;;;7.23;100.00
6833;BME280;3454;42.654;23.378;2023-02-28T00:41:48;94940.28;;;7.35;100.00
6833;BME280;3454;42.654;23.378;2023-02-28T00:44:14;94893.81;;;7.13;100.00
6833;BME280;3454;42.654;23.378;2023-02-28T00:46:39;94919.78;;;7.15;100.00
6833;BME280;3454;42.654;23.378;2023-02-28T00:49:04;94907.34;;;7.24;100.00
6833;BME280;3454;42.654;23.378;2023-02-28T00:51:30;94913.56;;;7.44;100.00
6833;BME280;3454;42.654;23.378;2023-02-28T00:53:55;94910.50;;;7.51;100.00
6833;BME280;3454;42.654;23.378;2023-02-28T00:56:21;94905.56;;;7.37;100.00
6833;BME280;3454;42.654;23.378;2023-02-28T00:58:46;94911.97;;;7.43;100.00
6833;BME280;3454;42.654;23.378;2023-02-28T01:01:12;94927.41;;;7.51;100.00
6833;BME280;3454;42.654;23.378;2023-02-28T01:03:37;94930.66;;;7.53;100.00
6833;BME280;3454;42.654;23.378;2023-02-28T01:06:03;94925.84;;;7.12;100.00
6833;BME280;3454;42.654;23.378;2023-02-28T01:08:29;94923.03;;;6.79;100.00
6833;BME280;3454;42.654;23.378;2023-02-28T01:10:54;94935.97;;;7.00;100.00
6833;BME280;3454;42.654;23.378;2023-02-28T01:13:20;94929.59;;;6.82;100.00
6833;BME280;3454;42.654;23.378;2023-02-28T01:15:49;94930.63;;;7.04;100.00
6833;BME280;3454;42.654;23.378;2023-02-28T01:18:16;94918.69;;;7.19;100.00
6833;BME280;3454;42.654;23.378;2023-02-28T01:20:41;94913.63;;;7.19;100.00
6833;BME280;3454;42.654;23.378;2023-02-28T01:23:07;94913.50;;;7.33;100.00
6833;BME280;3454;42.654;23.378;2023-02-28T01:25:35;94921.69;;;7.36;100.00
6833;BME280;3454;42.654;23.378;2023-02-28T01:28:00;94916.50;;;7.38;100.00
6833;BME280;3454;42.654;23.378;2023-02-28T01:30:26;94918.03;;;7.28;100.00
6833;BME280;3454;42.654;23.378;2023-02-28T01:32:51;94878.25;;;7.06;100.00
6833;BME280;3454;42.654;23.378;2023-02-28T01:35:19;94910.00;;;7.10;100.00
6833;BME280;3454;42.654;23.378;2023-02-28T01:37:44;94917.94;;;7.29;100.00
6833;BME280;3454;42.654;23.378;2023-02-28T01:40:11;94927.44;;;7.38;100.00
6833;BME280;3454;42.654;23.378;2023-02-28T01:42:36;94920.16;;;7.34;100.00
6833;BME280;3454;42.654;23.378;2023-02-28T01:45:25;94932.69;;;7.48;100.00
6833;BME280;3454;42.654;23.378;2023-02-28T01:48:11;94918.50;;;7.45;100.00
6833;BME280;3454;42.654;23.378;2023-02-28T01:50:40;94907.91;;;7.40;100.00
6833;BME280;3454;42.654;23.378;2023-02-28T01:53:10;94925.09;;;7.48;100.00
6833;BME280;3454;42.654;23.378;2023-02-28T01:55:39;94924.41;;;7.33;100.00
6833;BME280;3454;42.654;23.378;2023-02-28T01:58:07;94923.91;;;7.28;100.00
6833;BME280;3454;42.654;23.378;2023-02-28T02:00:34;94903.63;;;7.05;100.00
6833;BME280;3454;42.654;23.378;2023-02-28T02:03:08;94913.66;;;6.68;100.00
6833;BME280;3454;42.654;23.378;2023-02-28T02:05:37;94925.66;;;6.77;100.00
6833;BME280;3454;42.654;23.378;2023-02-28T02:08:09;94918.09;;;6.90;100.00
6833;BME280;3454;42.654;23.378;2023-02-28T02:10:58;94926.88;;;6.85;100.00
6833;BME280;3454;42.654;23.378;2023-02-28T02:18:59;94923.97;;;6.91;100.00
6833;BME280;3454;42.654;23.378;2023-02-28T02:21:52;94918.97;;;7.27;100.00
6833;BME280;3454;42.654;23.378;2023-02-28T02:30:14;94915.63;;;7.39;100.00
6833;BME280;3454;42.654;23.378;2023-02-28T02:38:20;94910.81;;;7.11;100.00
6833;BME280;3454;42.654;23.378;2023-02-28T02:48:55;94923.75;;;6.68;100.00
6833;BME280;3454;42.654;23.378;2023-02-28T02:51:23;94920.56;;;6.40;100.00
6833;BME280;3454;42.654;23.378;2023-02-28T02:53:54;94916.66;;;6.61;100.00
6833;BME280;3454;42.654;23.378;2023-02-28T02:56:25;94930.59;;;6.79;100.00
6833;BME280;3454;42.654;23.378;2023-02-28T02:58:53;94932.66;;;6.87;100.00
6833;BME280;3454;42.654;23.378;2023-02-28T03:01:23;94937.28;;;7.05;100.00
6833;BME280;3454;42.654;23.378;2023-02-28T03:04:11;94945.56;;;7.20;100.00
6833;BME280;3454;42.654;23.378;2023-02-28T03:06:38;94958.59;;;7.39;100.00
6833;BME280;3454;42.654;23.378;2023-02-28T03:09:04;94950.03;;;7.16;100.00
6833;BME280;3454;42.654;23.378;2023-02-28T03:11:31;94962.38;;;7.21;100.00
6833;BME280;3454;42.654;23.378;2023-02-28T03:16:39;94973.84;;;7.50;100.00
6833;BME280;3454;42.654;23.378;2023-02-28T03:19:23;94979.84;;;7.49;100.00
6833;BME280;3454;42.654;23.378;2023-02-28T03:24:48;94965.38;;;7.13;100.00
6833;BME280;3454;42.654;23.378;2023-02-28T03:27:23;94975.19;;;7.18;100.00
6833;BME280;3454;42.654;23.378;2023-02-28T03:30:03;94964.47;;;7.02;100.00
6833;BME280;3454;42.654;23.378;2023-02-28T03:32:38;94976.59;;;7.09;100.00
6833;BME280;3454;42.654;23.378;2023-02-28T03:35:14;94957.72;;;7.15;100.00
6833;BME280;3454;42.654;23.378;2023-02-28T03:37:48;94975.91;;;7.20;100.00
6833;BME280;3454;42.654;23.378;2023-02-28T03:40:28;94970.84;;;7.07;100.00
6833;BME280;3454;42.654;23.378;2023-02-28T03:43:02;94975.91;;;7.20;100.00
6833;BME280;3454;42.654;23.378;2023-02-28T03:45:30;94986.91;;;7.31;100.00
6833;BME280;3454;42.654;23.378;2023-02-28T03:48:05;95007.94;;;7.57;100.00
6833;BME280;3454;42.654;23.378;2023-02-28T03:50:41;94985.00;;;7.35;100.00
6833;BME280;3454;42.654;23.378;2023-02-28T03:53:12;94985.91;;;7.34;100.00
6833;BME280;3454;42.654;23.378;2023-02-28T03:55:45;94999.16;;;7.37;100.00
6833;BME280;3454;42.654;23.378;2023-02-28T04:00:56;94992.88;;;7.30;100.00
6833;BME280;3454;42.654;23.378;2023-02-28T04:03:24;94986.13;;;7.18;100.00
6833;BME280;3454;42.654;23.378;2023-02-28T04:05:52;94993.72;;;7.31;100.00
6833;BME280;3454;42.654;23.378;2023-02-28T04:08:18;94988.66;;;7.18;100.00
6833;BME280;3454;42.654;23.378;2023-02-28T04:10:59;94987.84;;;7.18;100.00
6833;BME280;3454;42.654;23.378;2023-02-28T04:13:26;94998.44;;;7.35;100.00
6833;BME280;3454;42.654;23.378;2023-02-28T04:15:51;94996.31;;;7.42;100.00
6833;BME280;3454;42.654;23.378;2023-02-28T04:18:16;94976.19;;;7.28;100.00
6833;BME280;3454;42.654;23.378;2023-02-28T04:20:42;94999.97;;;7.38;100.00
6833;BME280;3454;42.654;23.378;2023-02-28T04:23:07;94984.09;;;7.36;100.00
6833;BME280;3454;42.654;23.378;2023-02-28T04:25:33;95008.06;;;7.43;100.00
6833;BME280;3454;42.654;23.378;2023-02-28T04:27:58;94976.81;;;7.19;100.00
6833;BME280;3454;42.654;23.378;2023-02-28T04:30:23;94988.25;;;7.24;100.00
6833;BME280;3454;42.654;23.378;2023-02-28T04:32:49;94987.84;;;7.18;100.00
6833;BME280;3454;42.654;23.378;2023-02-28T04:35:14;94980.16;;;7.07;100.00
6833;BME280;3454;42.654;23.378;2023-02-28T04:37:40;94990.25;;;7.19;100.00
6833;BME280;3454;42.654;23.378;2023-02-28T04:40:06;94989.88;;;7.13;100.00
6833;BME280;3454;42.654;23.378;2023-02-28T04:42:32;94985.81;;;7.10;100.00
6833;BME280;3454;42.654;23.378;2023-02-28T04:45:02;95004.41;;;7.22;100.00
6833;BME280;3454;42.654;23.378;2023-02-28T04:47:28;95005.63;;;7.16;100.00
6833;BME280;3454;42.654;23.378;2023-02-28T04:49:53;94999.13;;;6.87;100.00
6833;BME280;3454;42.654;23.378;2023-02-28T04:52:18;95012.38;;;6.78;100.00
6833;BME280;3454;42.654;23.378;2023-02-28T04:54:44;95003.88;;;6.79;100.00
6833;BME280;3454;42.654;23.378;2023-02-28T04:57:10;95010.59;;;6.93;100.00
6833;BME280;3454;42.654;23.378;2023-02-28T04:59:35;95009.38;;;6.98;100.00
6833;BME280;3454;42.654;23.378;2023-02-28T05:02:01;95014.72;;;7.06;100.00
6833;BME280;3454;42.654;23.378;2023-02-28T05:04:34;95002.19;;;7.05;100.00
6833;BME280;3454;42.654;23.378;2023-02-28T05:07:01;95017.56;;;7.14;100.00
6833;BME280;3454;42.654;23.378;2023-02-28T05:09:27;95025.97;;;7.15;100.00
6833;BME280;3454;42.654;23.378;2023-02-28T05:11:53;94999.06;;;6.89;100.00
6833;BME280;3454;42.654;23.378;2023-02-28T05:14:19;95006.72;;;6.74;100.00
6833;BME280;3454;42.654;23.378;2023-02-28T05:16:44;95025.81;;;6.91;100.00
6833;BME280;3454;42.654;23.378;2023-02-28T05:19:10;95031.91;;;7.14;100.00
6833;BME280;3454;42.654;23.378;2023-02-28T05:21:40;95032.44;;;7.19;100.00
6833;BME280;3454;42.654;23.378;2023-02-28T05:24:09;95032.72;;;7.02;100.00
6833;BME280;3454;42.654;23.378;2023-02-28T05:26:37;95024.44;;;7.12;100.00
6833;BME280;3454;42.654;23.378;2023-02-28T05:29:03;95024.34;;;7.39;100.00
6833;BME280;3454;42.654;23.378;2023-02-28T05:31:28;95034.84;;;7.58;100.00
6833;BME280;3454;42.654;23.378;2023-02-28T05:33:54;95058.22;;;7.61;100.00
6833;BME280;3454;42.654;23.378;2023-02-28T05:36:20;95038.72;;;7.38;100.00
6833;BME280;3454;42.654;23.378;2023-02-28T05:38:47;95045.06;;;7.31;100.00
6833;BME280;3454;42.654;23.378;2023-02-28T05:41:13;95052.97;;;7.39;100.00
6833;BME280;3454;42.654;23.378;2023-02-28T05:43:39;95056.31;;;7.40;100.00
6833;BME280;3454;42.654;23.378;2023-02-28T05:46:05;95052.34;;;7.36;100.00
6833;BME280;3454;42.654;23.378;2023-02-28T05:48:32;95051.13;;;7.41;100.00
6833;BME280;3454;42.654;23.378;2023-02-28T05:50:58;95045.59;;;7.36;100.00
6833;BME280;3454;42.654;23.378;2023-02-28T05:53:23;95041.03;;;7.16;100.00
6833;BME280;3454;42.654;23.378;2023-02-28T05:55:49;95067.94;;;7.42;100.00
6833;BME280;3454;42.654;23.378;2023-02-28T05:58:14;95063.41;;;7.35;100.00
6833;BME280;3454;42.654;23.378;2023-02-28T06:00:40;95052.16;;;7.26;100.00
6833;BME280;3454;42.654;23.378;2023-02-28T06:03:05;95049.31;;;7.18;100.00
6833;BME280;3454;42.654;23.378;2023-02-28T06:05:31;95050.13;;;7.19;100.00
6833;BME280;3454;42.654;23.378;2023-02-28T06:07:56;95053.16;;;7.24;100.00
6833;BME280;3454;42.654;23.378;2023-02-28T06:10:22;95048.53;;;7.30;100.00
6833;BME280;3454;42.654;23.378;2023-02-28T06:12:47;95073.31;;;7.76;100.00
6833;BME280;3454;42.654;23.378;2023-02-28T06:15:14;95085.50;;;8.07;100.00
6833;BME280;3454;42.654;23.378;2023-02-28T06:17:41;95074.47;;;8.08;100.00
6833;BME280;3454;42.654;23.378;2023-02-28T06:20:08;95073.06;;;8.04;100.00
6833;BME280;3454;42.654;23.378;2023-02-28T06:22:35;95068.31;;;7.99;100.00
6833;BME280;3454;42.654;23.378;2023-02-28T06:25:01;95080.53;;;8.18;100.00
6833;BME280;3454;42.654;23.378;2023-02-28T06:27:27;95060.19;;;7.94;100.00
6833;BME280;3454;42.654;23.378;2023-02-28T06:29:55;95064.13;;;7.98;100.00
6833;BME280;3454;42.654;23.378;2023-02-28T06:32:21;95070.47;;;8.16;100.00
6833;BME280;3454;42.654;23.378;2023-02-28T06:34:47;95080.19;;;8.22;100.00
6833;BME280;3454;42.654;23.378;2023-02-28T06:37:12;95096.09;;;8.24;100.00
6833;BME280;3454;42.654;23.378;2023-02-28T06:39:38;95082.72;;;8.22;100.00
6833;BME280;3454;42.654;23.378;2023-02-28T06:42:03;95067.50;;;7.99;100.00
6833;BME280;3454;42.654;23.378;2023-02-28T06:44:29;95055.56;;;7.88;100.00
6833;BME280;3454;42.654;23.378;2023-02-28T06:47:01;95046.66;;;7.83;100.00
6833;BME280;3454;42.654;23.378;2023-02-28T06:49:29;95066.50;;;7.89;100.00
6833;BME280;3454;42.654;23.378;2023-02-28T06:51:54;95066.22;;;7.68;100.00
6833;BME280;3454;42.654;23.378;2023-02-28T06:54:20;95061.84;;;7.70;100.00
6833;BME280;3454;42.654;23.378;2023-02-28T06:56:45;95072.50;;;7.88;100.00
6833;BME280;3454;42.654;23.378;2023-02-28T06:59:12;95096.75;;;8.03;100.00
6833;BME280;3454;42.654;23.378;2023-02-28T07:01:37;95088.63;;;8.10;100.00
6833;BME280;3454;42.654;23.378;2023-02-28T07:04:05;95083.31;;;7.90;100.00
6833;BME280;3454;42.654;23.378;2023-02-28T07:06:31;95069.75;;;7.78;100.00
6833;BME280;3454;42.654;23.378;2023-02-28T07:08:57;95082.78;;;7.97;100.00
6833;BME280;3454;42.654;23.378;2023-02-28T07:11:24;95064.91;;;7.88;100.00
6833;BME280;3454;42.654;23.378;2023-02-28T07:13:52;95081.97;;;7.97;100.00
6833;BME280;3454;42.654;23.378;2023-02-28T07:16:17;95091.91;;;8.00;100.00
6833;BME280;3454;42.654;23.378;2023-02-28T07:18:43;95076.59;;;8.01;100.00
6833;BME280;3454;42.654;23.378;2023-02-28T07:21:09;95087.91;;;8.21;100.00
6833;BME280;3454;42.654;23.378;2023-02-28T07:23:35;95080.72;;;8.15;100.00
6833;BME280;3454;42.654;23.378;2023-02-28T07:26:03;95074.13;;;8.12;100.00
6833;BME280;3454;42.654;23.378;2023-02-28T07:28:29;95086.19;;;8.34;100.00
6833;BME280;3454;42.654;23.378;2023-02-28T07:30:55;95084.03;;;8.40;100.00
6833;BME280;3454;42.654;23.378;2023-02-28T07:33:20;95073.19;;;8.38;100.00
6833;BME280;3454;42.654;23.378;2023-02-28T07:35:45;95081.94;;;8.58;100.00
6833;BME280;3454;42.654;23.378;2023-02-28T07:38:11;95069.44;;;8.68;100.00
6833;BME280;3454;42.654;23.378;2023-02-28T07:40:39;95094.88;;;8.90;100.00
6833;BME280;3454;42.654;23.378;2023-02-28T07:43:05;95081.06;;;8.94;100.00
6833;BME280;3454;42.654;23.378;2023-02-28T07:45:31;95076.19;;;8.91;100.00
6833;BME280;3454;42.654;23.378;2023-02-28T07:47:59;95079.28;;;9.07;100.00
6833;BME280;3454;42.654;23.378;2023-02-28T07:50:25;95096.16;;;9.19;100.00
6833;BME280;3454;42.654;23.378;2023-02-28T07:52:50;95080.13;;;8.95;100.00
6833;BME280;3454;42.654;23.378;2023-02-28T07:55:16;95073.91;;;8.88;100.00
6833;BME280;3454;42.654;23.378;2023-02-28T07:57:42;95080.06;;;9.07;100.00
6833;BME280;3454;42.654;23.378;2023-02-28T08:00:09;95061.16;;;9.00;100.00
6833;BME280;3454;42.654;23.378;2023-02-28T08:02:35;95061.63;;;9.05;100.00
6833;BME280;3454;42.654;23.378;2023-02-28T08:05:01;95076.44;;;9.33;100.00
6833;BME280;3454;42.654;23.378;2023-02-28T08:07:27;95058.16;;;9.41;100.00
6833;BME280;3454;42.654;23.378;2023-02-28T08:09:52;95094.41;;;9.65;100.00
6833;BME280;3454;42.654;23.378;2023-02-28T08:12:18;95095.34;;;9.86;100.00
6833;BME280;3454;42.654;23.378;2023-02-28T08:14:43;95100.88;;;10.02;100.00
6833;BME280;3454;42.654;23.378;2023-02-28T08:17:10;95068.19;;;9.98;100.00
6833;BME280;3454;42.654;23.378;2023-02-28T08:19:35;95062.91;;;10.01;100.00
6833;BME280;3454;42.654;23.378;2023-02-28T08:22:01;95062.44;;;10.18;100.00
6833;BME280;3454;42.654;23.378;2023-02-28T08:24:26;95074.00;;;10.33;100.00
6833;BME280;3454;42.654;23.378;2023-02-28T08:26:52;95090.47;;;10.39;100.00
6833;BME280;3454;42.654;23.378;2023-02-28T08:29:17;95065.69;;;10.31;100.00
6833;BME280;3454;42.654;23.378;2023-02-28T08:31:43;95088.31;;;10.34;100.00
6833;BME280;3454;42.654;23.378;2023-02-28T08:34:09;95097.41;;;10.48;100.00
6833;BME280;3454;42.654;23.378;2023-02-28T08:36:36;95104.09;;;10.49;100.00
6833;BME280;3454;42.654;23.378;2023-02-28T08:39:02;95094.06;;;10.47;100.00
6833;BME280;3454;42.654;23.378;2023-02-28T08:41:28;95105.69;;;10.72;100.00
6833;BME280;3454;42.654;23.378;2023-02-28T08:43:53;95111.75;;;10.91;100.00
6833;BME280;3454;42.654;23.378;2023-02-28T08:46:19;95138.41;;;11.08;100.00
6833;BME280;3454;42.654;23.378;2023-02-28T08:48:45;95140.50;;;11.35;100.00
6833;BME280;3454;42.654;23.378;2023-02-28T08:51:17;95160.44;;;11.50;100.00
6833;BME280;3454;42.654;23.378;2023-02-28T08:53:47;95156.56;;;11.67;100.00
6833;BME280;3454;42.654;23.378;2023-02-28T08:56:15;95152.75;;;11.61;100.00
6833;BME280;3454;42.654;23.378;2023-02-28T08:58:42;95156.69;;;11.65;100.00
6833;BME280;3454;42.654;23.378;2023-02-28T09:01:13;95158.41;;;11.65;100.00
6833;BME280;3454;42.654;23.378;2023-02-28T09:03:39;95188.19;;;11.85;100.00
6833;BME280;3454;42.654;23.378;2023-02-28T09:06:07;95177.97;;;11.64;100.00
6833;BME280;3454;42.654;23.378;2023-02-28T09:08:33;95145.59;;;11.35;100.00
6833;BME280;3454;42.654;23.378;2023-02-28T09:10:59;95169.69;;;11.51;100.00
6833;BME280;3454;42.654;23.378;2023-02-28T09:13:26;95132.56;;;11.49;100.00
6833;BME280;3454;42.654;23.378;2023-02-28T09:15:52;95166.28;;;11.73;100.00
6833;BME280;3454;42.654;23.378;2023-02-28T09:18:18;95162.22;;;12.12;100.00
6833;BME280;3454;42.654;23.378;2023-02-28T09:20:44;95172.41;;;11.91;100.00
6833;BME280;3454;42.654;23.378;2023-02-28T09:23:10;95143.41;;;11.82;100.00
6833;BME280;3454;42.654;23.378;2023-02-28T09:25:36;95163.22;;;11.79;100.00
6833;BME280;3454;42.654;23.378;2023-02-28T09:28:02;95165.69;;;11.90;100.00
6833;BME280;3454;42.654;23.378;2023-02-28T09:30:28;95199.13;;;12.17;100.00
6833;BME280;3454;42.654;23.378;2023-02-28T09:32:54;95183.88;;;12.06;100.00
6833;BME280;3454;42.654;23.378;2023-02-28T09:35:23;95163.94;;;12.11;100.00
6833;BME280;3454;42.654;23.378;2023-02-28T09:37:50;95187.06;;;11.99;100.00
6833;BME280;3454;42.654;23.378;2023-02-28T09:40:22;95171.03;;;12.08;100.00
6833;BME280;3454;42.654;23.378;2023-02-28T09:42:51;95168.22;;;12.11;100.00
6833;BME280;3454;42.654;23.378;2023-02-28T09:45:26;95155.09;;;11.85;100.00
6833;BME280;3454;42.654;23.378;2023-02-28T09:47:56;95158.31;;;11.87;100.00
6833;BME280;3454;42.654;23.378;2023-02-28T09:53:06;95162.91;;;12.14;100.00
6833;BME280;3454;42.654;23.378;2023-02-28T09:55:43;95192.97;;;12.20;100.00
6833;BME280;3454;42.654;23.378;2023-02-28T09:58:19;95190.66;;;11.96;100.00
6833;BME280;3454;42.654;23.378;2023-02-28T10:03:47;95182.28;;;12.26;100.00
6833;BME280;3454;42.654;23.378;2023-02-28T10:06:26;95257.66;;;12.79;100.00
6833;BME280;3454;42.654;23.378;2023-02-28T10:09:01;95259.81;;;12.74;100.00
6833;BME280;3454;42.654;23.378;2023-02-28T10:11:27;95211.84;;;12.68;100.00
6833;BME280;3454;42.654;23.378;2023-02-28T10:14:02;95191.84;;;12.73;100.00
6833;BME280;3454;42.654;23.378;2023-02-28T10:22:18;95254.50;;;12.96;100.00
6833;BME280;3454;42.654;23.378;2023-02-28T10:24:53;95048.59;;;13.35;100.00
6833;BME280;3454;42.654;23.378;2023-02-28T10:27:20;95251.44;;;13.80;100.00
6833;BME280;3454;42.654;23.378;2023-02-28T10:29:49;95226.00;;;13.98;100.00
6833;BME280;3454;42.654;23.378;2023-02-28T10:32:20;95223.69;;;14.23;100.00
6833;BME280;3454;42.654;23.378;2023-02-28T10:35:00;95354.13;;;14.43;100.00
6833;BME280;3454;42.654;23.378;2023-02-28T10:37:30;95380.34;;;14.83;100.00
6833;BME280;3454;42.654;23.378;2023-02-28T10:39:57;95320.84;;;15.08;100.00
6833;BME280;3454;42.654;23.378;2023-02-28T10:42:24;95354.31;;;14.97;100.00
6833;BME280;3454;42.654;23.378;2023-02-28T10:53:22;95323.47;;;14.98;100.00
6833;BME280;3454;42.654;23.378;2023-02-28T11:03:58;95275.56;;;14.72;100.00
6833;BME280;3454;42.654;23.378;2023-02-28T11:06:33;95289.50;;;14.41;100.00
6833;BME280;3454;42.654;23.378;2023-02-28T11:09:02;95274.25;;;14.68;100.00
6833;BME280;3454;42.654;23.378;2023-02-28T11:11:30;95339.56;;;15.18;100.00
6833;BME280;3454;42.654;23.378;2023-02-28T11:14:06;95275.31;;;14.65;100.00
6833;BME280;3454;42.654;23.378;2023-02-28T11:16:41;95244.25;;;14.51;100.00
6833;BME280;3454;42.654;23.378;2023-02-28T11:19:17;95244.34;;;14.59;100.00
6833;BME280;3454;42.654;23.378;2023-02-28T11:21:52;95270.97;;;14.75;100.00
6833;BME280;3454;42.654;23.378;2023-02-28T11:24:30;95220.69;;;14.84;100.00
6833;BME280;3454;42.654;23.378;2023-02-28T11:26:57;95244.69;;;14.37;100.00
6833;BME280;3454;42.654;23.378;2023-02-28T11:29:26;95228.13;;;14.12;100.00
6833;BME280;3454;42.654;23.378;2023-02-28T11:32:20;95141.03;;;13.77;100.00
6833;BME280;3454;42.654;23.378;2023-02-28T11:37:37;95153.28;;;13.44;100.00
6833;BME280;3454;42.654;23.378;2023-02-28T11:40:13;95129.91;;;13.49;100.00
6833;BME280;3454;42.654;23.378;2023-02-28T11:51:10;95054.25;;;13.19;100.00
6833;BME280;3454;42.654;23.378;2023-02-28T11:54:21;95081.94;;;13.43;100.00
6833;BME280;3454;42.654;23.378;2023-02-28T11:57:00;95118.72;;;13.60;100.00
6833;BME280;3454;42.654;23.378;2023-02-28T12:00:06;95097.72;;;13.66;100.00
6833;BME280;3454;42.654;23.378;2023-02-28T12:13:36;95126.41;;;13.50;100.00
6833;BME280;3454;42.654;23.378;2023-02-28T12:16:27;95117.13;;;13.59;100.00
6833;BME280;3454;42.654;23.378;2023-02-28T12:19:40;95131.50;;;13.69;100.00
6833;BME280;3454;42.654;23.378;2023-02-28T12:22:02;95113.88;;;13.66;100.00
6833;BME280;3454;42.654;23.378;2023-02-28T12:27:21;95121.56;;;13.37;100.00
6833;BME280;3454;42.654;23.378;2023-02-28T12:29:58;95125.47;;;13.32;100.00
6833;BME280;3454;42.654;23.378;2023-02-28T12:32:39;95121.16;;;13.52;100.00
6833;BME280;3454;42.654;23.378;2023-02-28T12:35:12;95142.94;;;13.56;100.00
6833;BME280;3454;42.654;23.378;2023-02-28T12:37:47;95123.97;;;13.58;100.00
6833;BME280;3454;42.654;23.378;2023-02-28T12:40:27;95126.78;;;13.65;100.00
6833;BME280;3454;42.654;23.378;2023-02-28T12:43:04;95176.50;;;13.80;100.00
6833;BME280;3454;42.654;23.378;2023-02-28T12:48:09;95173.72;;;13.64;100.00
6833;BME280;3454;42.654;23.378;2023-02-28T12:50:37;95149.00;;;13.55;100.00
6833;BME280;3454;42.654;23.378;2023-02-28T12:53:07;95145.38;;;13.19;100.00
6833;BME280;3454;42.654;23.378;2023-02-28T12:55:46;95126.81;;;13.36;100.00
6833;BME280;3454;42.654;23.378;2023-02-28T12:58:22;95105.84;;;13.32;100.00
6833;BME280;3454;42.654;23.378;2023-02-28T13:09:11;95103.72;;;13.09;100.00
6833;BME280;3454;42.654;23.378;2023-02-28T13:11:45;95101.78;;;13.01;100.00
6833;BME280;3454;42.654;23.378;2023-02-28T13:19:41;95130.03;;;13.28;100.00
6833;BME280;3454;42.654;23.378;2023-02-28T13:22:46;95168.47;;;13.46;100.00
6833;BME280;3454;42.654;23.378;2023-02-28T13:27:48;95176.28;;;13.44;100.00
6833;BME280;3454;42.654;23.378;2023-02-28T13:33:28;95195.72;;;13.07;100.00
6833;BME280;3454;42.654;23.378;2023-02-28T13:38:48;95125.78;;;12.70;100.00
6833;BME280;3454;42.654;23.378;2023-02-28T13:41:41;95063.84;;;12.49;100.00
6833;BME280;3454;42.654;23.378;2023-02-28T13:44:16;95094.19;;;12.52;100.00
6833;BME280;3454;42.654;23.378;2023-02-28T13:57:19;95033.16;;;12.11;100.00
6833;BME280;3454;42.654;23.378;2023-02-28T14:05:21;94970.31;;;11.51;100.00
6833;BME280;3454;42.654;23.378;2023-02-28T14:08:00;94943.88;;;11.42;100.00
6833;BME280;3454;42.654;23.378;2023-02-28T14:10:31;94941.22;;;11.53;100.00
6833;BME280;3454;42.654;23.378;2023-02-28T14:18:25;94924.84;;;11.37;100.00
6833;BME280;3454;42.654;23.378;2023-02-28T14:20:56;94904.97;;;11.31;100.00
6833;BME280;3454;42.654;23.378;2023-02-28T14:23:42;94921.19;;;11.39;100.00
6833;BME280;3454;42.654;23.378;2023-02-28T14:34:48;94893.34;;;11.08;100.00
6833;BME280;3454;42.654;23.378;2023-02-28T14:37:23;94864.81;;;11.04;100.00
6833;BME280;3454;42.654;23.378;2023-02-28T14:39:52;94893.72;;;11.03;100.00
6833;BME280;3454;42.654;23.378;2023-02-28T14:44:55;94875.78;;;10.74;100.00
6833;BME280;3454;42.654;23.378;2023-02-28T14:47:30;94874.81;;;10.66;100.00
6833;BME280;3454;42.654;23.378;2023-02-28T14:49:58;94876.03;;;10.51;100.00
6833;BME280;3454;42.654;23.378;2023-02-28T14:52:31;94857.47;;;10.50;100.00
6833;BME280;3454;42.654;23.378;2023-02-28T14:54:59;94856.16;;;10.56;100.00
6833;BME280;3454;42.654;23.378;2023-02-28T14:57:26;94890.91;;;10.55;100.00
6833;BME280;3454;42.654;23.378;2023-02-28T15:00:12;94885.97;;;10.54;100.00
6833;BME280;3454;42.654;23.378;2023-02-28T15:02:40;94901.78;;;10.57;100.00
6833;BME280;3454;42.654;23.378;2023-02-28T15:07:34;94874.00;;;10.65;100.00
6833;BME280;3454;42.654;23.378;2023-02-28T15:13:05;94906.69;;;10.70;100.00
6833;BME280;3454;42.654;23.378;2023-02-28T15:15:56;94912.00;;;10.67;100.00
6833;BME280;3454;42.654;23.378;2023-02-28T15:18:50;94905.25;;;10.56;100.00
6833;BME280;3454;42.654;23.378;2023-02-28T15:21:22;94935.13;;;10.64;100.00
6833;BME280;3454;42.654;23.378;2023-02-28T15:23:55;94919.69;;;10.56;100.00
6833;BME280;3454;42.654;23.378;2023-02-28T15:26:29;94909.66;;;10.54;100.00
6833;BME280;3454;42.654;23.378;2023-02-28T15:29:06;94923.03;;;10.56;100.00
6833;BME280;3454;42.654;23.378;2023-02-28T15:31:35;94902.75;;;10.45;100.00
6833;BME280;3454;42.654;23.378;2023-02-28T15:34:06;94901.06;;;10.35;100.00
6833;BME280;3454;42.654;23.378;2023-02-28T15:36:33;94903.81;;;10.43;100.00
6833;BME280;3454;42.654;23.378;2023-02-28T15:39:17;94907.03;;;10.45;100.00
6833;BME280;3454;42.654;23.378;2023-02-28T15:41:43;94909.56;;;10.45;100.00
6833;BME280;3454;42.654;23.378;2023-02-28T15:44:27;94918.00;;;10.45;100.00
6833;BME280;3454;42.654;23.378;2023-02-28T15:47:16;94920.47;;;10.36;100.00
6833;BME280;3454;42.654;23.378;2023-02-28T15:52:16;94914.50;;;10.26;100.00